Time;durP1;ratioP1;P1;durP2;ratioP2;P2;SDS_P1;SDS_P2;PMS_P1;PMS_P2;Temp;Humidity;BMP_temperature;BMP_pressure;BME280_temperature;BME280_humidity;BME280_pressure;Samples;Min_cycle;Max_cycle;Signal;HPM_P1;HPM_P2
2023/06/10 00:05:01;;;;;;;10.68;5.03;;;17.90;99.90;;;;;;12370838;28;20054;-38
2023/06/10 00:11:04;;;;;;;11.88;5.38;;;17.80;99.90;;;;;;12368827;28;20155;-39
2023/06/10 00:17:08;;;;;;;9.65;5.07;;;17.70;99.90;;;;;;12379311;28;20755;-38
2023/06/10 00:23:11;;;;;;;8.15;5.00;;;17.70;99.90;;;;;;12364934;28;20057;-38
2023/06/10 00:29:14;;;;;;;9.57;4.30;;;17.50;99.90;;;;;;12374945;28;20057;-39
2023/06/10 00:35:16;;;;;;;11.02;4.32;;;17.40;99.90;;;;;;12371323;28;20043;-38
2023/06/10 00:41:17;;;;;;;11.48;5.15;;;17.40;99.90;;;;;;12370280;28;20059;-38
2023/06/10 00:47:20;;;;;;;7.63;4.90;;;17.40;99.90;;;;;;12377090;28;20070;-39
2023/06/10 00:53:22;;;;;;;8.60;4.15;;;17.50;99.90;;;;;;12369182;28;20046;-39
2023/06/10 00:59:25;;;;;;;9.90;4.35;;;17.40;99.90;;;;;;12370357;28;20050;-40
2023/06/10 01:05:27;;;;;;;8.95;4.22;;;17.20;99.90;;;;;;12370007;28;20050;-38
2023/06/10 01:11:43;;;;;;;7.70;4.15;;;17.10;99.90;;;;;;12362894;28;20073;-39
2023/06/10 01:17:58;;;;;;;9.57;3.97;;;17.00;99.90;;;;;;12370686;28;20050;-39
2023/06/10 01:24:01;;;;;;;9.48;4.13;;;16.90;99.90;;;;;;12367197;28;20542;-39
2023/06/10 01:30:15;;;;;;;9.20;4.18;;;16.70;99.90;;;;;;12370505;28;20057;-38
2023/06/10 01:36:18;;;;;;;9.27;3.92;;;16.50;99.90;;;;;;12347537;28;20509;-38
2023/06/10 01:42:21;;;;;;;8.10;4.50;;;16.50;99.90;;;;;;12385547;28;20403;-38
2023/06/10 01:48:23;;;;;;;7.72;4.63;;;16.50;99.90;;;;;;12370960;28;20051;-38
2023/06/10 01:54:25;;;;;;;10.30;5.15;;;16.30;99.90;;;;;;12383301;28;20057;-38
2023/06/10 02:00:27;;;;;;;7.47;4.65;;;16.00;99.90;;;;;;12374028;28;20042;-39
2023/06/10 02:06:29;;;;;;;11.10;4.40;;;15.90;99.90;;;;;;12378615;28;20050;-38
2023/06/10 02:12:32;;;;;;;8.15;4.15;;;16.00;99.90;;;;;;12377595;28;20042;-38
2023/06/10 02:18:33;;;;;;;8.55;4.72;;;16.30;99.90;;;;;;12371894;28;20463;-38
2023/06/10 02:24:37;;;;;;;8.15;4.20;;;16.80;99.90;;;;;;12382413;28;20046;-38
2023/06/10 02:30:42;;;;;;;11.20;4.28;;;17.00;99.90;;;;;;12376222;28;20058;-38
2023/06/10 02:36:44;;;;;;;9.90;4.20;;;16.70;99.90;;;;;;12377919;28;20074;-39
2023/06/10 02:42:46;;;;;;;9.07;3.90;;;16.20;99.90;;;;;;12380711;28;20058;-38
2023/06/10 02:48:51;;;;;;;7.45;4.10;;;16.60;99.90;;;;;;12380099;28;20054;-38
2023/06/10 02:54:53;;;;;;;6.68;3.72;;;15.90;99.90;;;;;;12381895;28;20068;-38
2023/06/10 03:00:59;;;;;;;11.30;4.28;;;15.40;99.90;;;;;;12374974;28;20506;-39
2023/06/10 03:07:03;;;;;;;7.55;3.65;;;16.10;99.90;;;;;;12377184;28;20061;-39
2023/06/10 03:13:05;;;;;;;6.50;3.42;;;15.50;99.90;;;;;;12373018;28;20392;-38
2023/06/10 03:19:07;;;;;;;9.73;3.67;;;15.00;99.90;;;;;;12372503;28;20394;-38
2023/06/10 03:25:13;;;;;;;7.57;3.15;;;14.80;99.90;;;;;;12383876;28;20058;-39
2023/06/10 03:31:16;;;;;;;5.40;3.25;;;14.70;99.90;;;;;;12374595;28;20073;-39
2023/06/10 03:37:18;;;;;;;9.88;3.78;;;14.80;99.90;;;;;;12372243;28;20043;-39
2023/06/10 03:43:21;;;;;;;7.60;3.70;;;14.80;99.90;;;;;;12378650;28;20042;-39
2023/06/10 03:49:26;;;;;;;7.40;3.72;;;14.70;99.90;;;;;;12379024;28;20074;-39
2023/06/10 03:55:29;;;;;;;8.30;3.53;;;14.70;99.90;;;;;;12378596;28;20083;-39
2023/06/10 04:01:31;;;;;;;11.65;3.33;;;14.60;99.90;;;;;;12377656;28;20161;-39
2023/06/10 04:07:34;;;;;;;7.45;3.38;;;14.70;99.90;;;;;;12373066;28;20050;-38
2023/06/10 04:13:36;;;;;;;6.38;3.35;;;15.00;99.90;;;;;;12375190;28;20054;-38
2023/06/10 04:19:39;;;;;;;7.93;3.53;;;15.70;99.90;;;;;;12371297;28;20039;-39
2023/06/10 04:25:41;;;;;;;7.75;3.10;;;15.60;99.90;;;;;;12380462;28;21064;-39
2023/06/10 04:31:46;;;;;;;8.13;3.63;;;15.90;99.90;;;;;;12366227;28;20054;-39
2023/06/10 04:37:48;;;;;;;10.18;3.65;;;16.70;99.90;;;;;;12369511;28;20051;-38
2023/06/10 04:43:51;;;;;;;7.93;3.70;;;16.50;99.90;;;;;;12373656;28;20450;-39
2023/06/10 04:49:53;;;;;;;9.60;3.40;;;15.80;99.90;;;;;;12370791;28;20085;-38
2023/06/10 04:55:55;;;;;;;7.78;3.45;;;16.90;99.90;;;;;;12369483;28;20073;-38
2023/06/10 05:01:57;;;;;;;7.65;3.13;;;16.50;99.90;;;;;;12374254;28;20046;-38
2023/06/10 05:07:59;;;;;;;8.45;4.00;;;16.00;99.90;;;;;;12383201;28;20057;-38
2023/06/10 05:14:01;;;;;;;8.85;3.80;;;15.70;99.90;;;;;;12370115;28;20038;-38
2023/06/10 05:20:04;;;;;;;9.52;3.30;;;15.50;99.90;;;;;;12383966;28;20453;-38
2023/06/10 05:26:06;;;;;;;9.77;3.60;;;15.60;99.90;;;;;;12378592;28;20058;-39
2023/06/10 05:32:08;;;;;;;7.90;3.75;;;15.60;99.90;;;;;;12375070;28;20051;-39
2023/06/10 05:38:10;;;;;;;11.65;3.90;;;15.80;99.90;;;;;;12392685;28;20092;-39
2023/06/10 05:44:12;;;;;;;6.43;3.55;;;16.40;99.90;;;;;;12381952;28;20046;-39
2023/06/10 05:50:15;;;;;;;8.25;3.80;;;16.50;99.90;;;;;;12368882;28;20050;-39
2023/06/10 05:56:17;;;;;;;7.43;3.97;;;16.30;99.90;;;;;;12363639;28;20046;-39
2023/06/10 06:02:19;;;;;;;7.00;3.50;;;16.50;99.90;;;;;;12377294;28;20050;-40
2023/06/10 06:08:21;;;;;;;8.32;4.00;;;16.80;99.90;;;;;;12348550;28;20046;-39
2023/06/10 06:14:23;;;;;;;8.48;3.28;;;16.60;99.90;;;;;;12370856;28;20073;-39
2023/06/10 06:20:25;;;;;;;6.35;3.55;;;17.10;99.90;;;;;;12374204;28;20057;-40
2023/06/10 06:26:27;;;;;;;11.63;4.15;;;17.40;99.90;;;;;;12378091;28;20088;-39
2023/06/10 06:32:30;;;;;;;8.02;3.72;;;17.10;99.90;;;;;;12358994;28;20054;-39
2023/06/10 06:38:32;;;;;;;7.68;3.90;;;17.80;99.90;;;;;;12367270;28;20173;-39
2023/06/10 06:44:33;;;;;;;9.27;2.95;;;18.10;99.90;;;;;;12360787;28;20108;-40
2023/06/10 06:50:35;;;;;;;9.05;3.70;;;18.40;99.90;;;;;;12370075;28;20065;-40
2023/06/10 06:56:38;;;;;;;11.35;4.38;;;18.70;99.90;;;;;;12374523;28;20053;-39
2023/06/10 07:02:40;;;;;;;13.48;3.92;;;18.80;99.90;;;;;;12380557;28;20407;-39
2023/06/10 07:08:42;;;;;;;7.50;3.80;;;18.70;99.90;;;;;;12372513;28;20519;-39
2023/06/10 07:14:44;;;;;;;9.38;3.55;;;18.40;99.90;;;;;;12380395;28;20100;-39
2023/06/10 07:20:46;;;;;;;8.55;3.78;;;18.70;99.90;;;;;;12369920;28;20050;-39
2023/06/10 07:26:48;;;;;;;9.00;3.53;;;18.60;99.90;;;;;;12369396;28;20058;-39
2023/06/10 07:32:51;;;;;;;7.32;3.78;;;18.60;99.90;;;;;;12377269;28;20054;-39
2023/06/10 07:38:54;;;;;;;7.57;3.57;;;18.60;99.90;;;;;;12365619;28;20072;-39
2023/06/10 07:44:56;;;;;;;6.07;3.50;;;18.90;99.90;;;;;;12369086;28;20050;-39
2023/06/10 07:50:59;;;;;;;11.38;3.83;;;19.00;99.90;;;;;;12348808;28;20490;-39
2023/06/10 07:57:01;;;;;;;7.78;4.15;;;19.10;99.90;;;;;;12364945;28;20050;-39
2023/06/10 08:03:03;;;;;;;11.98;4.30;;;19.20;99.90;;;;;;12342144;28;20043;-40
2023/06/10 08:09:05;;;;;;;11.73;5.25;;;19.00;99.90;;;;;;12345320;28;20708;-40
2023/06/10 08:15:07;;;;;;;8.85;5.03;;;19.00;99.90;;;;;;12348331;28;20563;-39
2023/06/10 08:21:10;;;;;;;13.03;5.23;;;19.00;99.90;;;;;;12365196;28;20050;-39
2023/06/10 08:27:12;;;;;;;12.48;5.63;;;19.20;99.90;;;;;;12362793;28;20050;-38
2023/06/10 08:33:14;;;;;;;13.82;5.82;;;19.40;99.90;;;;;;12352702;28;20392;-40
2023/06/10 08:39:17;;;;;;;9.48;5.53;;;19.60;99.90;;;;;;12355685;28;20061;-40
2023/06/10 08:45:22;;;;;;;10.48;6.00;;;19.50;99.90;;;;;;12346335;28;20141;-39
2023/06/10 08:51:25;;;;;;;9.70;5.20;;;19.30;99.90;;;;;;12350801;28;20057;-39
2023/06/10 08:57:27;;;;;;;8.25;4.93;;;19.50;99.90;;;;;;12351347;28;20046;-40
2023/06/10 09:03:30;;;;;;;11.27;5.07;;;19.80;99.90;;;;;;12359081;28;20086;-40
2023/06/10 09:09:34;;;;;;;8.07;4.60;;;20.10;99.90;;;;;;12370245;28;20058;-38
2023/06/10 09:15:36;;;;;;;11.00;4.43;;;20.30;99.90;;;;;;12351221;28;20419;-38
2023/06/10 09:21:38;;;;;;;13.20;4.85;;;20.50;99.90;;;;;;12362197;28;20057;-39
2023/06/10 09:27:53;;;;;;;11.57;4.97;;;20.20;99.90;;;;;;12363922;28;20066;-40
2023/06/10 09:34:05;;;;;;;9.18;4.38;;;20.50;99.90;;;;;;12341910;28;20043;-39
2023/06/10 09:40:10;;;;;;;11.20;4.40;;;21.10;99.90;;;;;;12362184;28;20518;-39
2023/06/10 09:46:19;;;;;;;9.13;3.88;;;21.80;99.90;;;;;;12323739;28;20122;-39
2023/06/10 09:52:23;;;;;;;9.70;4.72;;;22.20;99.90;;;;;;12358661;28;20051;-39
2023/06/10 09:58:39;;;;;;;13.25;4.50;;;21.70;99.90;;;;;;12366465;28;20055;-38
2023/06/10 10:04:41;;;;;;;7.35;4.10;;;22.30;99.90;;;;;;12367805;28;20057;-39
2023/06/10 10:10:44;;;;;;;14.73;4.57;;;22.80;99.90;;;;;;12357130;28;20082;-39
2023/06/10 10:16:47;;;;;;;9.65;4.63;;;22.80;99.90;;;;;;12352043;28;20118;-39
2023/06/10 10:22:52;;;;;;;12.15;4.95;;;22.90;99.90;;;;;;12362738;28;20065;-39
2023/06/10 10:29:09;;;;;;;8.05;3.95;;;22.90;99.90;;;;;;12355943;28;20454;-39
2023/06/10 10:35:23;;;;;;;9.35;4.03;;;22.80;99.90;;;;;;12361235;28;20049;-39
2023/06/10 10:41:26;;;;;;;13.18;4.03;;;23.50;99.90;;;;;;12364148;28;20129;-38
2023/06/10 10:47:30;;;;;;;7.93;3.67;;;23.30;99.90;;;;;;12358730;28;20073;-40
2023/06/10 10:53:32;;;;;;;6.18;3.53;;;23.10;99.90;;;;;;12371222;28;20038;-39
2023/06/10 10:59:59;;;;;;;7.88;3.60;;;23.10;99.90;;;;;;12360286;28;20101;-39
2023/06/10 11:06:15;;;;;;;7.35;3.17;;;23.70;99.90;;;;;;12343091;28;20396;-39
2023/06/10 11:12:24;;;;;;;4.90;3.20;;;23.90;99.90;;;;;;12357649;28;20055;-39
2023/06/10 11:18:28;;;;;;;7.32;2.80;;;24.50;99.90;;;;;;12365673;28;20059;-39
2023/06/10 11:24:30;;;;;;;5.47;2.92;;;24.20;99.90;;;;;;12362064;28;20050;-39
2023/06/10 11:30:35;;;;;;;5.83;2.90;;;24.20;99.90;;;;;;12363537;28;20080;-39
2023/06/10 11:36:42;;;;;;;6.85;2.90;;;24.10;99.90;;;;;;12363217;28;20065;-39
2023/06/10 11:42:46;;;;;;;6.85;2.92;;;24.00;99.90;;;;;;12374205;28;20058;-40
2023/06/10 11:48:56;;;;;;;5.53;2.95;;;24.60;99.90;;;;;;12343089;28;20053;-38
2023/06/10 11:54:57;;;;;;;7.38;2.85;;;24.50;99.90;;;;;;12359094;28;20042;-39
2023/06/10 12:01:01;;;;;;;5.63;2.78;;;24.40;99.90;;;;;;12359846;28;20082;-39
2023/06/10 12:07:03;;;;;;;9.73;2.72;;;24.90;99.90;;;;;;12363764;28;20140;-39
2023/06/10 12:13:05;;;;;;;7.27;3.07;;;25.30;99.90;;;;;;12374461;28;20078;-39
2023/06/10 12:19:07;;;;;;;5.43;2.87;;;25.30;99.90;;;;;;12368740;28;20396;-39
2023/06/10 12:25:11;;;;;;;9.90;2.90;;;25.50;99.90;;;;;;12350842;28;20043;-39
2023/06/10 12:31:13;;;;;;;7.43;3.10;;;25.80;99.90;;;;;;12370716;28;20495;-39
2023/06/10 12:37:17;;;;;;;6.85;3.20;;;25.60;99.90;;;;;;12337184;28;20072;-39
2023/06/10 12:43:25;;;;;;;11.33;3.73;;;25.50;99.90;;;;;;12356098;28;20046;-40
2023/06/10 12:49:27;;;;;;;7.32;3.38;;;25.30;99.90;;;;;;12343265;28;20712;-39
2023/06/10 12:55:30;;;;;;;8.32;3.97;;;25.60;99.90;;;;;;12352016;28;20038;-39
2023/06/10 13:01:32;;;;;;;6.65;3.15;;;25.30;99.90;;;;;;12358427;28;20054;-39
2023/06/10 13:07:35;;;;;;;13.63;4.35;;;25.50;99.90;;;;;;12358645;28;20137;-39
2023/06/10 13:13:37;;;;;;;8.80;3.60;;;25.60;99.90;;;;;;12352849;28;20109;-40
2023/06/10 13:19:39;;;;;;;9.70;4.30;;;25.70;99.90;;;;;;12350745;28;20047;-40
2023/06/10 13:25:44;;;;;;;7.57;3.88;;;25.60;99.90;;;;;;12373462;28;20051;-39
2023/06/10 13:31:46;;;;;;;5.30;3.60;;;25.80;99.90;;;;;;12368818;28;20051;-40
2023/06/10 13:37:48;;;;;;;8.73;3.97;;;25.80;99.90;;;;;;12368316;28;20055;-39
2023/06/10 13:43:50;;;;;;;6.77;3.90;;;25.70;99.90;;;;;;12366078;28;20153;-39
2023/06/10 13:49:52;;;;;;;9.60;4.30;;;25.70;99.90;;;;;;12346511;28;20054;-39
2023/06/10 13:55:54;;;;;;;7.83;4.03;;;25.70;99.90;;;;;;12349619;28;20499;-39
2023/06/10 14:01:56;;;;;;;8.98;4.30;;;25.70;99.90;;;;;;12366865;28;21304;-39
2023/06/10 14:07:58;;;;;;;7.80;4.53;;;25.80;99.90;;;;;;12370359;28;20046;-39
2023/06/10 14:14:00;;;;;;;9.20;3.97;;;25.80;99.90;;;;;;12360097;28;20051;-40
2023/06/10 14:20:04;;;;;;;10.37;4.70;;;25.90;99.90;;;;;;12365638;28;20042;-39
2023/06/10 14:26:07;;;;;;;10.43;4.50;;;25.80;99.90;;;;;;12356350;28;20049;-40
2023/06/10 14:32:09;;;;;;;9.73;4.70;;;25.80;99.90;;;;;;12367096;28;20059;-39
2023/06/10 14:38:11;;;;;;;;;;;25.80;99.90;;;;;;12351053;28;20081;-39
2023/06/10 14:44:13;;;;;;;8.80;4.70;;;25.90;99.90;;;;;;12407083;28;19921;-40
2023/06/10 14:50:15;;;;;;;7.97;4.63;;;26.00;99.90;;;;;;12400616;28;20517;-39
2023/06/10 14:56:17;;;;;;;9.23;4.70;;;26.10;99.90;;;;;;12434160;28;20053;-39
2023/06/10 15:02:21;;;;;;;8.03;4.57;;;26.10;99.90;;;;;;12397335;28;20061;-39
2023/06/10 15:08:27;;;;;;;9.88;4.97;;;26.20;99.90;;;;;;12413479;28;20054;-39
2023/06/10 15:14:30;;;;;;;6.15;4.18;;;26.20;99.90;;;;;;12405433;28;20065;-39
2023/06/10 15:20:32;;;;;;;7.03;4.38;;;26.20;99.90;;;;;;12428999;28;20057;-39
2023/06/10 15:26:34;;;;;;;8.07;4.07;;;26.10;99.90;;;;;;12425940;28;20045;-39
2023/06/10 15:32:36;;;;;;;8.57;4.70;;;26.10;99.90;;;;;;12419972;28;20054;-40
2023/06/10 15:38:37;;;;;;;6.93;4.23;;;26.10;99.90;;;;;;12430004;28;20478;-40
2023/06/10 15:44:39;;;;;;;8.53;4.43;;;26.10;99.90;;;;;;12427685;28;20072;-40
2023/06/10 15:50:42;;;;;;;10.00;4.60;;;26.30;99.90;;;;;;12414718;28;20049;-40
2023/06/10 15:56:44;;;;;;;;;;;26.30;99.90;;;;;;12423538;28;20073;-40
2023/06/10 16:02:47;;;;;;;8.88;4.15;;;26.40;99.90;;;;;;12425957;28;19921;-39
2023/06/10 16:08:49;;;;;;;10.90;4.63;;;26.50;99.90;;;;;;12412459;28;20770;-39
2023/06/10 16:14:51;;;;;;;6.07;3.80;;;26.40;99.90;;;;;;12420429;28;20046;-39
2023/06/10 16:20:53;;;;;;;7.37;4.20;;;26.50;99.90;;;;;;12427552;28;20057;-40
2023/06/10 16:26:55;;;;;;;8.03;4.60;;;26.20;99.90;;;;;;12421476;28;20296;-39
2023/06/10 16:32:57;;;;;;;7.30;4.27;;;26.30;99.90;;;;;;12426497;28;20045;-38
2023/06/10 16:38:59;;;;;;;5.87;3.90;;;26.30;99.90;;;;;;12426708;28;20749;-40
2023/06/10 16:45:01;;;;;;;7.00;4.57;;;26.30;99.90;;;;;;12426180;28;20286;-40
2023/06/10 16:51:03;;;;;;;7.43;4.15;;;26.30;99.90;;;;;;12424893;28;20061;-40
2023/06/10 16:57:05;;;;;;;8.27;4.50;;;26.30;99.90;;;;;;12418164;28;20041;-39
2023/06/10 17:03:08;;;;;;;5.57;4.20;;;26.20;99.90;;;;;;12431532;28;20049;-39
2023/06/10 17:09:10;;;;;;;10.40;4.05;;;26.20;99.90;;;;;;12432598;28;20050;-39
2023/06/10 17:15:12;;;;;;;6.80;3.67;;;26.20;99.90;;;;;;12422866;28;20414;-41
2023/06/10 17:21:14;;;;;;;5.70;4.40;;;26.20;99.90;;;;;;12426704;28;20073;-39
2023/06/10 17:27:16;;;;;;;6.80;3.87;;;26.10;99.90;;;;;;12432221;28;20073;-40
2023/06/10 17:33:18;;;;;;;6.93;4.13;;;26.10;99.90;;;;;;12433932;28;20393;-40
2023/06/10 17:39:20;;;;;;;12.50;4.50;;;26.20;99.90;;;;;;12425778;28;20042;-40
2023/06/10 17:45:22;;;;;;;8.20;4.00;;;26.10;99.90;;;;;;12419250;28;20045;-39
2023/06/10 17:51:24;;;;;;;6.87;4.23;;;26.20;99.90;;;;;;12420828;28;20285;-40
2023/06/10 17:57:27;;;;;;;9.35;4.18;;;26.30;99.90;;;;;;12426439;28;20038;-40
2023/06/10 18:03:29;;;;;;;7.28;4.15;;;26.30;99.90;;;;;;12424655;28;20486;-41
2023/06/10 18:09:32;;;;;;;5.75;4.13;;;26.10;99.90;;;;;;12425707;28;21741;-42
2023/06/10 18:15:34;;;;;;;8.75;4.65;;;25.90;99.90;;;;;;12424902;28;20533;-40
2023/06/10 18:21:39;;;;;;;9.18;4.82;;;25.70;99.90;;;;;;12424479;28;20058;-39
2023/06/10 18:27:41;;;;;;;6.13;4.03;;;25.50;99.90;;;;;;12419573;28;20090;-39
2023/06/10 18:33:43;;;;;;;5.73;4.20;;;25.30;99.90;;;;;;12422677;28;20430;-38
2023/06/10 18:39:45;;;;;;;9.35;4.40;;;25.10;99.90;;;;;;12427950;28;20049;-38
2023/06/10 18:45:47;;;;;;;8.27;4.83;;;25.10;99.90;;;;;;12419251;28;20054;-39
2023/06/10 18:51:49;;;;;;;6.40;4.73;;;24.80;99.90;;;;;;12415600;28;20430;-39
2023/06/10 18:57:51;;;;;;;12.60;4.50;;;24.60;99.90;;;;;;12428091;28;20038;-39
2023/06/10 19:03:53;;;;;;;9.38;4.32;;;24.30;99.90;;;;;;12419335;28;20050;-39
2023/06/10 19:09:55;;;;;;;9.07;4.07;;;24.20;99.90;;;;;;12417859;28;20452;-40
2023/06/10 19:15:57;;;;;;;9.13;4.60;;;24.20;99.90;;;;;;12423858;28;20056;-40
2023/06/10 19:22:00;;;;;;;7.60;4.40;;;23.90;99.90;;;;;;12424884;28;20058;-39
2023/06/10 19:28:02;;;;;;;10.32;4.10;;;23.70;99.90;;;;;;12427241;28;20402;-38
2023/06/10 19:34:04;;;;;;;6.67;3.80;;;23.50;99.90;;;;;;12430253;28;20129;-39
2023/06/10 19:40:06;;;;;;;5.95;4.28;;;23.40;99.90;;;;;;12421533;28;20065;-40
2023/06/10 19:46:09;;;;;;;7.75;4.13;;;23.50;99.90;;;;;;12430905;28;20053;-39
2023/06/10 19:52:11;;;;;;;6.23;3.60;;;23.40;99.90;;;;;;12412082;28;20055;-39
2023/06/10 19:58:13;;;;;;;5.95;4.10;;;23.10;99.90;;;;;;12419617;28;20297;-39
2023/06/10 20:04:15;;;;;;;8.45;3.85;;;22.70;99.90;;;;;;12419017;28;20490;-38
2023/06/10 20:10:18;;;;;;;7.82;3.90;;;22.40;99.90;;;;;;12423733;28;20062;-39
2023/06/10 20:16:20;;;;;;;7.38;4.47;;;22.40;99.90;;;;;;12423090;28;20128;-39
2023/06/10 20:22:22;;;;;;;6.18;4.30;;;22.50;99.90;;;;;;12421847;28;20398;-39
2023/06/10 20:28:25;;;;;;;7.30;3.70;;;22.80;99.90;;;;;;12429004;28;20060;-38
2023/06/10 20:34:27;;;;;;;;;;;22.80;99.90;;;;;;12421153;28;20099;-38
2023/06/10 20:40:30;;;;;;;6.68;3.75;;;22.60;99.90;;;;;;12416797;28;19936;-38
2023/06/10 20:46:32;;;;;;;6.43;3.78;;;22.30;99.90;;;;;;12426487;28;20076;-39
2023/06/10 20:52:34;;;;;;;9.40;4.20;;;22.10;99.90;;;;;;12422757;28;20141;-39
2023/06/10 20:58:37;;;;;;;7.18;4.22;;;22.20;99.90;;;;;;12426178;28;20046;-38
2023/06/10 21:04:39;;;;;;;7.82;4.65;;;22.20;99.90;;;;;;12426684;28;20046;-38
2023/06/10 21:10:41;;;;;;;6.32;4.20;;;22.00;99.90;;;;;;12418685;28;20080;-39
2023/06/10 21:16:44;;;;;;;10.75;4.97;;;21.60;99.90;;;;;;12420235;28;20394;-38
2023/06/10 21:22:46;;;;;;;9.50;4.38;;;21.20;99.90;;;;;;12420508;28;20057;-40
2023/06/10 21:28:48;;;;;;;6.65;4.63;;;21.00;99.90;;;;;;12430430;28;20076;-39
2023/06/10 21:34:50;;;;;;;7.00;4.07;;;20.80;99.90;;;;;;12414940;28;20139;-39
2023/06/10 21:40:55;;;;;;;7.28;4.13;;;20.50;99.90;;;;;;12429314;28;20132;-39
2023/06/10 21:46:57;;;;;;;6.13;4.35;;;20.30;99.90;;;;;;12414379;28;20046;-39
2023/06/10 21:52:58;;;;;;;7.18;3.92;;;20.30;99.90;;;;;;12428119;28;20073;-38
2023/06/10 21:59:02;;;;;;;6.57;4.00;;;20.40;99.90;;;;;;12429713;28;20053;-39
2023/06/10 22:05:05;;;;;;;6.93;4.20;;;20.40;99.90;;;;;;12427280;28;20054;-39
2023/06/10 22:11:08;;;;;;;7.35;3.70;;;20.60;99.90;;;;;;12424051;28;20468;-40
2023/06/10 22:17:11;;;;;;;6.57;3.90;;;20.70;99.90;;;;;;12426732;28;20050;-40
2023/06/10 22:23:19;;;;;;;;;;;21.10;99.90;;;;;;12422028;28;20045;-38
2023/06/10 22:29:21;;;;;;;6.18;4.28;;;21.30;99.90;;;;;;12423870;28;19925;-40
2023/06/10 22:35:23;;;;;;;5.40;4.10;;;21.00;99.90;;;;;;12436505;28;20402;-39
2023/06/10 22:41:25;;;;;;;7.43;4.55;;;20.60;99.90;;;;;;12421396;28;20054;-38
2023/06/10 22:47:27;;;;;;;7.50;4.95;;;20.60;99.90;;;;;;12419418;28;20128;-39
2023/06/10 22:53:30;;;;;;;6.45;4.93;;;20.20;99.90;;;;;;12425115;28;20528;-38
2023/06/10 22:59:32;;;;;;;7.40;4.80;;;19.40;99.90;;;;;;12432409;28;20065;-39
2023/06/10 23:05:34;;;;;;;10.68;4.90;;;19.40;99.90;;;;;;12421301;28;20072;-39
2023/06/10 23:11:37;;;;;;;6.88;5.18;;;19.40;99.90;;;;;;12434391;28;20069;-39
2023/06/10 23:17:39;;;;;;;5.63;4.75;;;19.20;99.90;;;;;;12425762;28;20050;-38
2023/06/10 23:23:41;;;;;;;8.40;4.95;;;19.10;99.90;;;;;;12427061;28;20084;-38
2023/06/10 23:29:43;;;;;;;11.18;4.93;;;19.20;99.90;;;;;;12418382;28;20077;-38
2023/06/10 23:35:58;;;;;;;5.95;4.68;;;19.40;99.90;;;;;;12418943;28;20093;-38
2023/06/10 23:42:00;;;;;;;6.15;4.95;;;19.30;99.90;;;;;;12427529;28;20068;-38
2023/06/10 23:48:02;;;;;;;6.22;4.43;;;19.60;99.90;;;;;;12417875;28;20453;-39
2023/06/10 23:54:05;;;;;;;6.10;4.60;;;19.80;99.90;;;;;;12423930;28;20517;-38
